Time;durP1;ratioP1;P1;durP2;ratioP2;P2;SDS_P1;SDS_P2;PMS_P1;PMS_P2;Temp;Humidity;BMP_temperature;BMP_pressure;BME280_temperature;BME280_humidity;BME280_pressure;Samples;Min_cycle;Max_cycle;Signal;HPM_P1;HPM_P2
2022/08/28 00:00:10;;;;;;;10.27;8.93;;;;;;;22.33;68.52;94675.72;5115527;28;20446;-79
2022/08/28 00:02:36;;;;;;;15.93;7.50;;;;;;;22.39;68.33;94684.75;5115621;28;20442;-80
2022/08/28 00:05:05;;;;;;;9.60;7.10;;;;;;;22.32;68.40;94683.94;5115217;28;20802;-79
2022/08/28 00:07:32;;;;;;;8.80;7.83;;;;;;;22.24;68.91;94683.09;5115491;28;20943;-80
2022/08/28 00:10:00;;;;;;;16.40;8.27;;;;;;;22.22;68.51;94682.50;5115277;28;20439;-81
2022/08/28 00:12:27;;;;;;;9.90;7.50;;;;;;;22.18;69.12;94688.47;5115031;28;20435;-80
2022/08/28 00:14:54;;;;;;;9.60;7.63;;;;;;;22.22;69.07;94682.50;5115782;28;20486;-79
2022/08/28 00:17:20;;;;;;;9.80;7.93;;;;;;;22.26;69.23;94685.56;5115162;28;20943;-79
2022/08/28 00:19:47;;;;;;;8.20;7.00;;;;;;;22.33;68.79;94683.75;5115532;28;20478;-79
2022/08/28 00:22:14;;;;;;;11.03;7.77;;;;;;;22.37;68.19;94689.50;5115295;28;20447;-79
2022/08/28 00:24:43;;;;;;;9.30;7.73;;;;;;;22.39;68.33;94687.44;5115361;28;20541;-79
2022/08/28 00:29:55;;;;;;;9.80;8.10;;;;;;;22.40;68.44;94683.72;5115097;28;20442;-79
2022/08/28 00:32:24;;;;;;;11.87;8.20;;;;;;;22.50;68.52;94689.47;5115231;28;20446;-79
2022/08/28 00:34:50;;;;;;;15.00;7.63;;;;;;;22.55;67.91;94684.28;5114672;28;20455;-79
2022/08/28 00:37:17;;;;;;;15.00;7.83;;;;;;;22.54;67.34;94688.00;5114922;28;20439;-79
2022/08/28 00:39:45;;;;;;;15.90;8.50;;;;;;;22.62;67.80;94686.97;5114836;28;20453;-80
2022/08/28 00:42:13;;;;;;;8.87;7.93;;;;;;;22.67;67.47;94690.66;5115098;28;20455;-79
2022/08/28 00:44:41;;;;;;;18.20;7.90;;;;;;;22.69;67.75;94690.47;5114496;28;20451;-79
2022/08/28 00:47:08;;;;;;;8.10;7.30;;;;;;;22.64;67.29;94685.75;5114797;28;20808;-79
2022/08/28 00:49:42;;;;;;;18.03;7.90;;;;;;;22.68;67.77;94684.28;5114517;28;20447;-80
2022/08/28 00:52:07;;;;;;;11.90;8.17;;;;;;;22.63;67.04;94681.44;5114572;28;20921;-80
2022/08/28 00:54:37;;;;;;;8.53;7.40;;;;;;;22.58;67.02;94680.41;5114368;28;20449;-79
2022/08/28 00:57:07;;;;;;;11.20;7.77;;;;;;;22.63;67.19;94684.09;5114275;28;20788;-79
2022/08/28 00:59:36;;;;;;;13.70;8.07;;;;;;;22.59;66.75;94682.88;5114800;28;20443;-79
2022/08/28 01:02:05;;;;;;;11.03;7.50;;;;;;;22.54;67.41;94686.16;5114352;28;20446;-80
2022/08/28 01:04:33;;;;;;;19.50;8.10;;;;;;;22.49;67.49;94685.97;5078154;28;20427;-79
2022/08/28 01:07:02;;;;;;;12.50;7.53;;;;;;;22.37;67.72;94686.81;5114271;28;20500;-79
2022/08/28 01:09:31;;;;;;;10.97;8.43;;;;;;;22.16;68.51;94690.53;5114176;28;20435;-80
2022/08/28 01:12:02;;;;;;;13.30;8.47;;;;;;;22.08;69.02;94690.72;5114070;28;20442;-79
2022/08/28 01:14:32;;;;;;;18.87;7.77;;;;;;;22.01;69.61;94681.88;5061658;28;20455;-79
2022/08/28 01:17:01;;;;;;;11.07;7.63;;;;;;;22.04;70.04;94684.97;5113972;28;20479;-79
2022/08/28 01:19:31;;;;;;;12.10;9.03;;;;;;;22.13;69.60;94691.75;5114174;28;20710;-80
2022/08/28 01:22:07;;;;;;;9.23;8.13;;;;;;;22.09;69.75;94690.53;5113985;28;20458;-79
2022/08/28 01:24:38;;;;;;;8.87;7.97;;;;;;;22.04;69.39;94690.31;5113122;28;20447;-79
2022/08/28 01:27:05;;;;;;;12.40;7.67;;;;;;;22.06;69.53;94696.28;5113846;28;20937;-79
2022/08/28 01:29:32;;;;;;;8.17;7.30;;;;;;;21.79;70.77;94699.94;5113915;28;20446;-79
2022/08/28 01:31:59;;;;;;;11.63;7.17;;;;;;;21.82;70.88;94705.69;5114162;28;20833;-79
2022/08/28 01:34:26;;;;;;;9.90;7.50;;;;;;;21.87;70.61;94692.53;5113629;28;20530;-79
2022/08/28 01:36:52;;;;;;;10.90;8.23;;;;;;;21.94;70.78;94696.03;5113538;28;20470;-79
2022/08/28 01:39:21;;;;;;;16.83;7.90;;;;;;;21.82;70.16;94703.00;5060916;28;20454;-79
2022/08/28 01:41:53;;;;;;;11.83;8.20;;;;;;;21.64;71.27;94692.91;5113752;28;20454;-79
2022/08/28 01:44:23;;;;;;;13.40;8.50;;;;;;;21.59;71.15;94695.38;5113332;28;20960;-79
2022/08/28 01:46:51;;;;;;;10.87;7.13;;;;;;;21.49;71.84;94694.13;5113522;28;20478;-79
2022/08/28 01:49:18;;;;;;;14.63;7.90;;;;;;;21.54;71.56;94692.47;5113222;28;20515;-80
2022/08/28 01:51:45;;;;;;;12.60;9.00;;;;;;;21.54;71.51;94692.47;5113483;28;20442;-79
2022/08/28 01:54:12;;;;;;;10.23;8.57;;;;;;;21.60;71.73;94704.19;5113566;28;20462;-79
2022/08/28 01:56:41;;;;;;;9.30;8.20;;;;;;;21.52;71.89;94705.22;5113252;28;20490;-79
2022/08/28 01:59:13;;;;;;;11.20;8.30;;;;;;;21.50;71.74;94688.56;5113125;28;20465;-79
2022/08/28 02:01:41;;;;;;;12.93;8.10;;;;;;;21.44;71.96;94700.06;5112820;28;20944;-79
2022/08/28 02:04:08;;;;;;;10.97;8.30;;;;;;;21.39;71.93;94693.66;5113380;28;20443;-79
2022/08/28 02:06:36;;;;;;;18.73;8.17;;;;;;;21.44;71.80;94702.75;5112943;28;20925;-79
2022/08/28 02:09:04;;;;;;;21.10;8.03;;;;;;;21.50;71.72;94698.44;5113128;28;20529;-79
2022/08/28 02:11:31;;;;;;;9.07;8.17;;;;;;;21.55;71.64;94701.31;5113161;28;20443;-79
2022/08/28 02:13:58;;;;;;;16.60;9.00;;;;;;;21.55;71.43;94694.13;5112815;28;20457;-80
2022/08/28 02:16:27;;;;;;;21.20;9.33;;;;;;;21.61;71.36;94703.19;5112592;28;20486;-79
2022/08/28 02:18:54;;;;;;;13.73;8.33;;;;;;;21.57;71.12;94701.94;5113158;28;20489;-79
2022/08/28 02:21:21;;;;;;;10.93;6.97;;;;;;;21.59;71.27;94706.03;5112852;28;20438;-80
2022/08/28 02:23:50;;;;;;;9.93;7.83;;;;;;;21.63;71.09;94707.28;5076852;28;20443;-79
2022/08/28 02:26:17;;;;;;;16.97;7.90;;;;;;;21.63;70.90;94703.78;5112997;28;20999;-79
2022/08/28 02:28:44;;;;;;;10.20;8.80;;;;;;;21.60;71.41;94699.69;5112832;28;20447;-79
2022/08/28 02:31:11;;;;;;;12.37;8.30;;;;;;;21.58;70.92;94709.75;5112812;28;20777;-79
2022/08/28 02:33:42;;;;;;;8.90;8.00;;;;;;;21.57;70.63;94705.44;5112457;28;20500;-79
2022/08/28 02:36:11;;;;;;;12.53;7.93;;;;;;;21.52;71.30;94710.56;5075759;28;20522;-80
2022/08/28 02:38:38;;;;;;;14.67;7.33;;;;;;;21.58;71.22;94701.72;5112448;28;20443;-79
2022/08/28 02:41:05;;;;;;;11.07;7.97;;;;;;;21.57;71.00;94708.09;5112560;28;20446;-79
2022/08/28 02:43:32;;;;;;;14.63;8.80;;;;;;;21.54;70.93;94708.50;5112374;28;20446;-79
2022/08/28 02:45:59;;;;;;;15.80;7.50;;;;;;;21.46;71.07;94706.03;5112650;28;20794;-79
2022/08/28 02:48:30;;;;;;;9.67;8.23;;;;;;;21.48;71.57;94701.31;5112360;28;20450;-80
2022/08/28 02:51:01;;;;;;;8.47;7.63;;;;;;;21.53;70.87;94701.53;5112447;28;20503;-79
2022/08/28 02:53:29;;;;;;;10.80;8.80;;;;;;;21.54;71.00;94705.84;5112316;28;20953;-79
2022/08/28 02:55:57;;;;;;;9.30;7.73;;;;;;;21.58;70.99;94706.25;5112406;28;20498;-79
2022/08/28 02:58:25;;;;;;;14.50;8.50;;;;;;;21.60;70.27;94701.53;5112236;28;20443;-79
2022/08/28 03:00:52;;;;;;;16.33;7.80;;;;;;;21.57;70.41;94709.94;5112386;28;20956;-79
2022/08/28 03:03:19;;;;;;;13.67;8.33;;;;;;;21.54;70.91;94713.84;5112710;28;20443;-79
2022/08/28 03:05:46;;;;;;;13.10;8.40;;;;;;;21.47;71.07;94717.53;5112405;28;20447;-79
2022/08/28 03:08:14;;;;;;;9.17;8.03;;;;;;;21.48;71.55;94712.00;5060025;28;20450;-80
2022/08/28 03:10:41;;;;;;;9.60;8.60;;;;;;;21.34;71.04;94715.63;5112442;28;20451;-79
2022/08/28 03:13:08;;;;;;;16.73;8.30;;;;;;;21.43;70.96;94710.94;5112206;28;20485;-80
2022/08/28 03:15:37;;;;;;;10.27;8.00;;;;;;;21.44;70.94;94713.41;5112172;28;20445;-79
2022/08/28 03:18:04;;;;;;;11.80;7.70;;;;;;;21.38;71.11;94719.53;5060395;28;20562;-79
2022/08/28 03:20:30;;;;;;;13.00;7.80;;;;;;;21.34;70.96;94719.13;5112161;28;20457;-79
2022/08/28 03:25:43;;;;;;;16.97;8.90;;;;;;;21.03;72.28;94716.91;5112148;28;20504;-78
2022/08/28 03:28:10;;;;;;;10.20;8.70;;;;;;;20.96;72.46;94718.72;5112095;28;20990;-79
2022/08/28 03:30:37;;;;;;;15.47;8.57;;;;;;;20.94;72.95;94717.28;5112134;28;20515;-79
2022/08/28 03:33:04;;;;;;;9.30;8.40;;;;;;;20.90;72.76;94711.53;5112418;28;20492;-79
2022/08/28 03:35:31;;;;;;;12.37;8.50;;;;;;;20.95;73.54;94719.75;5112048;28;20443;-78
2022/08/28 03:37:58;;;;;;;11.40;8.57;;;;;;;20.97;73.00;94716.88;5111936;28;20439;-78
2022/08/28 03:40:25;;;;;;;14.00;8.17;;;;;;;21.01;72.98;94726.97;5112423;28;20442;-79
2022/08/28 03:42:53;;;;;;;10.83;8.57;;;;;;;21.09;72.85;94730.47;5112204;28;20438;-79
2022/08/28 03:45:20;;;;;;;11.20;8.47;;;;;;;21.00;72.37;94725.31;5112168;28;20503;-79
2022/08/28 03:47:46;;;;;;;11.23;8.87;;;;;;;20.96;73.03;94734.75;5112788;28;20488;-79
2022/08/28 03:50:15;;;;;;;10.47;8.57;;;;;;;20.91;72.97;94734.50;5116019;28;20852;-79
2022/08/28 03:52:42;;;;;;;15.50;8.40;;;;;;;20.92;73.01;94738.81;5113255;28;20454;-78
2022/08/28 03:55:11;;;;;;;11.67;7.30;;;;;;;20.90;73.61;94740.88;5115555;28;20467;-79
2022/08/28 03:57:39;;;;;;;9.80;8.63;;;;;;;20.87;73.15;94737.78;5115348;28;20482;-80
2022/08/28 04:00:10;;;;;;;12.60;9.27;;;;;;;20.94;72.97;94739.44;5115390;28;20932;-79
2022/08/28 04:02:37;;;;;;;16.10;8.87;;;;;;;20.88;73.80;94740.25;5115340;28;20450;-80
2022/08/28 04:05:05;;;;;;;10.13;9.00;;;;;;;20.83;73.62;94747.19;5115667;28;20457;-78
2022/08/28 04:07:32;;;;;;;21.30;9.50;;;;;;;20.86;73.85;94739.63;5115314;28;20546;-77
2022/08/28 04:09:59;;;;;;;12.13;8.53;;;;;;;20.99;73.00;94754.88;5115491;28;20439;-78
2022/08/28 04:12:25;;;;;;;15.17;9.20;;;;;;;21.16;73.33;94747.38;5115243;28;20439;-78
2022/08/28 04:14:53;;;;;;;9.10;8.20;;;;;;;21.36;71.85;94758.13;5115168;28;20458;-78
2022/08/28 04:17:21;;;;;;;12.20;8.63;;;;;;;21.43;71.92;94762.50;5115049;28;20991;-78
2022/08/28 04:19:48;;;;;;;9.20;8.27;;;;;;;21.62;71.24;94758.22;5115348;28;20458;-77
2022/08/28 04:22:14;;;;;;;9.27;8.37;;;;;;;21.79;69.66;94764.03;5115292;28;20450;-77
2022/08/28 04:24:41;;;;;;;10.80;8.20;;;;;;;22.09;68.95;94769.88;5115200;28;20442;-78
2022/08/28 04:27:08;;;;;;;8.83;7.17;;;;;;;22.49;67.60;94768.03;5115570;28;20459;-78
2022/08/28 04:29:35;;;;;;;13.13;7.70;;;;;;;22.97;66.19;94762.47;5114725;28;20451;-79
2022/08/28 04:32:02;;;;;;;15.73;8.10;;;;;;;23.38;64.34;94770.97;5115904;28;20836;-78
2022/08/28 04:34:30;;;;;;;13.47;9.23;;;;;;;23.33;63.83;94776.16;5115776;28;20529;-78
2022/08/28 04:36:57;;;;;;;12.10;8.03;;;;;;;23.06;64.71;94775.41;5116357;28;20486;-78
2022/08/28 04:39:24;;;;;;;14.30;8.13;;;;;;;23.11;65.78;94785.47;5115840;28;20454;-77
2022/08/28 04:41:51;;;;;;;11.20;9.20;;;;;;;23.38;64.99;94789.72;5116056;28;20446;-77
2022/08/28 04:44:17;;;;;;;18.63;8.67;;;;;;;23.81;64.09;94789.19;5115801;28;20496;-78
2022/08/28 04:46:44;;;;;;;10.30;7.70;;;;;;;24.15;62.32;94789.81;5063403;28;20786;-78
2022/08/28 04:49:13;;;;;;;11.57;7.53;;;;;;;24.53;60.38;94793.25;5115694;28;20442;-79
2022/08/28 04:51:42;;;;;;;25.83;8.43;;;;;;;24.99;59.87;94798.28;5115556;28;20443;-79
2022/08/28 04:54:10;;;;;;;15.90;8.13;;;;;;;25.31;57.92;94790.91;5115669;28;20446;-78
2022/08/28 04:56:39;;;;;;;12.00;8.63;;;;;;;25.59;57.15;94790.38;5115353;28;20511;-77
2022/08/28 04:59:06;;;;;;;9.27;7.37;;;;;;;25.96;56.28;94800.28;5114780;28;20439;-79
2022/08/28 05:01:33;;;;;;;13.63;8.03;;;;;;;26.28;55.15;94788.25;5115303;28;20454;-79
2022/08/28 05:04:02;;;;;;;14.70;8.40;;;;;;;26.64;53.41;94798.09;5115857;28;20466;-79
2022/08/28 05:06:30;;;;;;;11.80;7.27;;;;;;;26.82;52.94;94789.09;5116117;28;21280;-79
2022/08/28 05:09:00;;;;;;;10.00;7.90;;;;;;;27.04;52.01;94792.88;5115351;28;20447;-78
2022/08/28 05:11:29;;;;;;;13.60;7.53;;;;;;;27.10;51.98;94791.13;5078900;28;20427;-78
2022/08/28 05:13:56;;;;;;;16.33;8.57;;;;;;;27.07;51.59;94795.09;5115224;28;20439;-78
2022/08/28 05:16:23;;;;;;;15.13;7.93;;;;;;;27.08;52.08;94795.91;5114791;28;21214;-78
2022/08/28 05:18:50;;;;;;;13.77;8.07;;;;;;;27.05;51.77;94794.53;5115089;28;20478;-79
2022/08/28 05:21:19;;;;;;;14.30;7.57;;;;;;;27.02;53.14;94789.59;5115021;28;20439;-79
2022/08/28 05:23:47;;;;;;;13.63;7.77;;;;;;;26.95;53.23;94796.97;5114978;28;20521;-79
2022/08/28 05:26:18;;;;;;;13.13;8.67;;;;;;;26.92;53.51;94799.31;5114813;28;20447;-80
2022/08/28 05:28:46;;;;;;;11.20;8.63;;;;;;;26.99;54.04;94805.41;5114970;28;20446;-80
2022/08/28 05:31:16;;;;;;;12.87;8.40;;;;;;;26.97;53.84;94797.53;5115212;28;20446;-79
2022/08/28 05:33:42;;;;;;;12.47;8.17;;;;;;;26.87;53.49;94797.28;5115133;28;20443;-80
2022/08/28 05:36:10;;;;;;;10.87;8.10;;;;;;;26.87;53.01;94808.06;5114839;28;20447;-82
2022/08/28 05:38:38;;;;;;;9.90;7.67;;;;;;;26.94;53.94;94813.34;5114345;28;20454;-82
2022/08/28 05:41:05;;;;;;;10.77;8.20;;;;;;;27.03;53.96;94810.09;5114423;28;20451;-80
2022/08/28 05:43:34;;;;;;;9.70;7.40;;;;;;;27.04;53.66;94816.31;5114742;28;20486;-81
2022/08/28 05:46:03;;;;;;;20.90;7.93;;;;;;;26.83;53.83;94814.97;5114896;28;20439;-84
2022/08/28 05:48:31;;;;;;;13.50;7.77;;;;;;;26.50;54.62;94816.31;5114832;28;20903;-81
2022/08/28 05:50:58;;;;;;;17.97;8.70;;;;;;;26.49;53.90;94824.63;5115165;28;20461;-81
2022/08/28 05:53:25;;;;;;;15.03;8.60;;;;;;;26.48;54.47;94818.41;5114786;28;20452;-81
2022/08/28 05:55:52;;;;;;;14.10;7.83;;;;;;;26.64;55.28;94824.19;5114604;28;20454;-81
2022/08/28 05:58:30;;;;;;;14.60;8.30;;;;;;;26.62;54.03;94820.91;5115023;28;20835;-81
2022/08/28 06:01:06;;;;;;;8.83;7.53;;;;;;;26.56;55.00;94814.56;5114945;28;20500;-81
2022/08/28 06:03:33;;;;;;;15.50;7.90;;;;;;;26.68;54.45;94817.28;5114249;28;20477;-81
2022/08/28 06:06:03;;;;;;;21.83;8.13;;;;;;;26.96;55.51;94816.63;5113344;28;20472;-82
2022/08/28 06:08:31;;;;;;;15.80;9.03;;;;;;;27.15;53.42;94816.28;5094158;28;20455;-82
2022/08/28 06:10:59;;;;;;;14.77;7.70;;;;;;;27.36;54.07;94808.69;5107822;28;20826;-83
2022/08/28 06:13:26;;;;;;;11.23;8.10;;;;;;;27.39;52.81;94816.28;5114760;28;20522;-82
2022/08/28 06:15:53;;;;;;;21.97;8.80;;;;;;;27.58;53.39;94815.09;5114470;28;20823;-80
2022/08/28 06:18:21;;;;;;;17.40;7.97;;;;;;;27.79;52.97;94816.38;5114773;28;20494;-82
2022/08/28 06:20:48;;;;;;;10.77;7.90;;;;;;;27.93;51.21;94822.31;5100376;28;20447;-83
2022/08/28 06:23:18;;;;;;;11.10;8.10;;;;;;;28.28;49.99;94814.13;5064643;28;20956;-82
2022/08/28 06:25:48;;;;;;;11.63;7.20;;;;;;;28.35;49.10;94806.72;5113930;28;20451;-82
2022/08/28 06:28:16;;;;;;;13.63;7.50;;;;;;;28.01;50.34;94813.84;5109274;28;20448;-82
2022/08/28 06:30:43;;;;;;;13.37;8.13;;;;;;;27.86;49.76;94810.84;5105375;28;20442;-81
2022/08/28 06:33:11;;;;;;;14.67;8.17;;;;;;;27.86;50.22;94808.97;5099613;28;20853;-83
2022/08/28 06:35:42;;;;;;;15.97;7.27;;;;;;;27.84;50.84;94810.28;5104261;28;20474;-81
2022/08/28 06:38:09;;;;;;;14.90;8.23;;;;;;;27.90;50.79;94810.13;5107749;28;20487;-82
2022/08/28 06:40:41;;;;;;;9.83;7.70;;;;;;;27.98;50.93;94820.53;5102270;28;20546;-82
2022/08/28 06:43:07;;;;;;;11.60;8.97;;;;;;;27.95;51.86;94822.88;5100044;28;20447;-82
2022/08/28 06:45:34;;;;;;;14.60;7.90;;;;;;;28.07;50.90;94824.50;5113967;28;20834;-85
2022/08/28 06:48:02;;;;;;;16.50;7.60;;;;;;;28.16;50.66;94816.84;5100830;28;20447;-82
2022/08/28 06:50:28;;;;;;;10.13;7.10;;;;;;;28.37;50.48;94818.09;5108241;28;20444;-82
2022/08/28 06:52:57;;;;;;;17.47;6.50;;;;;;;28.50;50.43;94816.94;5105319;28;20535;-83
2022/08/28 06:55:24;;;;;;;13.80;7.40;;;;;;;28.34;49.68;94816.69;5098535;28;20490;-84
2022/08/28 06:57:51;;;;;;;16.30;7.60;;;;;;;28.32;50.25;94826.06;5104057;28;20502;-85
2022/08/28 07:00:18;;;;;;;10.30;7.70;;;;;;;28.07;49.94;94819.13;5112099;28;20781;-83
2022/08/28 07:02:45;;;;;;;21.47;9.97;;;;;;;28.18;50.85;94813.91;5105604;28;20470;-90
2022/08/28 07:05:13;;;;;;;15.40;8.10;;;;;;;28.26;50.39;94821.63;5108091;28;20434;-84
2022/08/28 07:07:40;;;;;;;20.87;8.20;;;;;;;28.44;48.25;94820.63;5113341;28;21033;-84
2022/08/28 07:10:09;;;;;;;21.27;7.70;;;;;;;28.63;48.24;94813.94;5113656;28;20459;-84
2022/08/28 07:12:36;;;;;;;13.53;8.00;;;;;;;29.04;48.11;94812.75;5111649;28;20432;-87
2022/08/28 07:15:03;;;;;;;12.13;8.13;;;;;;;29.38;48.03;94816.22;5109379;28;20854;-88
2022/08/28 07:17:31;;;;;;;10.67;7.40;;;;;;;29.46;46.26;94817.72;5061717;28;20885;-85
2022/08/28 07:19:58;;;;;;;17.10;8.40;;;;;;;29.37;47.01;94813.78;5111236;28;20627;-85
2022/08/28 07:22:26;;;;;;;9.60;7.63;;;;;;;29.47;46.86;94822.06;5104995;28;20450;-87
2022/08/28 07:24:53;;;;;;;20.60;8.73;;;;;;;29.30;46.24;94814.78;5064925;28;20533;-83
2022/08/28 07:27:23;;;;;;;12.17;8.07;;;;;;;29.46;46.31;94815.00;5116557;28;20794;-84
2022/08/28 07:29:51;;;;;;;19.70;8.20;;;;;;;29.54;47.03;94818.13;5116831;28;20543;-84
2022/08/28 07:32:20;;;;;;;14.77;7.87;;;;;;;29.49;44.58;94815.34;5117492;28;20534;-84
2022/08/28 07:34:48;;;;;;;9.80;6.90;;;;;;;29.70;46.69;94812.91;5114738;28;20498;-84
2022/08/28 07:37:15;;;;;;;12.93;10.10;;;;;;;30.00;45.75;94809.75;5116239;28;20531;-84
2022/08/28 07:39:42;;;;;;;12.67;8.50;;;;;;;30.24;45.80;94804.91;5116476;28;20446;-84
2022/08/28 07:44:47;;;;;;;11.07;7.90;;;;;;;30.33;44.36;94814.22;5116226;28;20797;-84
2022/08/28 07:44:58;;;;;;;14.57;7.90;;;;;;;30.50;43.46;94804.94;5115827;28;20431;-85
2022/08/28 07:47:29;;;;;;;17.30;8.20;;;;;;;30.44;42.42;94799.72;5114336;28;20470;-85
2022/08/28 07:49:56;;;;;;;10.03;8.03;;;;;;;30.56;43.72;94797.66;5115557;28;20956;-84
2022/08/28 07:52:23;;;;;;;18.00;7.93;;;;;;;30.55;43.81;94806.03;5116863;28;20538;-84
2022/08/28 07:54:50;;;;;;;10.93;7.30;;;;;;;30.69;43.07;94793.75;5117099;28;20435;-84
2022/08/28 07:57:19;;;;;;;9.67;7.73;;;;;;;30.87;42.93;94801.50;5117028;28;20486;-86
2022/08/28 07:59:45;;;;;;;15.30;8.20;;;;;;;30.99;42.94;94795.91;5117087;28;20447;-84
2022/08/28 08:02:15;;;;;;;11.13;6.63;;;;;;;31.08;42.36;94797.06;5115808;28;20447;-84
2022/08/28 08:04:42;;;;;;;16.80;7.97;;;;;;;31.13;42.59;94791.66;5115607;28;20450;-84
2022/08/28 08:07:11;;;;;;;13.97;7.43;;;;;;;31.30;43.00;94796.97;5115497;28;20443;-85
2022/08/28 08:09:40;;;;;;;11.73;7.40;;;;;;;31.48;41.01;94798.41;5115656;28;20511;-85
2022/08/28 08:12:08;;;;;;;21.50;7.00;;;;;;;31.62;40.18;94794.16;5115322;28;20842;-85
2022/08/28 08:14:36;;;;;;;13.47;7.30;;;;;;;31.68;39.52;94787.69;5115231;28;20440;-85
2022/08/28 08:17:03;;;;;;;15.77;8.37;;;;;;;31.74;40.10;94787.47;5079186;28;20443;-85
2022/08/28 08:19:32;;;;;;;14.70;7.57;;;;;;;31.63;39.87;94790.38;5115450;28;20470;-85
2022/08/28 08:21:59;;;;;;;12.27;7.67;;;;;;;31.56;39.83;94792.50;5116910;28;20447;-85
2022/08/28 08:24:29;;;;;;;16.30;7.10;;;;;;;31.59;40.26;94789.28;5115236;28;20442;-85
2022/08/28 08:26:58;;;;;;;12.90;8.23;;;;;;;31.43;40.20;94794.59;5114920;28;20492;-85
2022/08/28 08:29:25;;;;;;;18.83;7.10;;;;;;;31.46;40.55;94789.72;5115222;28;20447;-86
2022/08/28 08:31:56;;;;;;;8.43;7.07;;;;;;;31.43;41.02;94785.66;5114884;28;20435;-85
2022/08/28 08:34:24;;;;;;;19.80;8.80;;;;;;;31.50;40.22;94783.50;5114936;28;20451;-86
2022/08/28 08:36:53;;;;;;;17.73;8.23;;;;;;;31.55;40.29;94788.16;5078714;28;20427;-85
2022/08/28 08:39:19;;;;;;;14.90;7.83;;;;;;;31.52;38.93;94786.00;5114645;28;20846;-85
2022/08/28 08:41:49;;;;;;;20.80;7.53;;;;;;;31.53;38.62;94780.28;5114619;28;20443;-85
2022/08/28 08:44:23;;;;;;;26.33;8.10;;;;;;;31.58;38.78;94779.50;5114918;28;20450;-85
2022/08/28 08:46:57;;;;;;;16.60;7.40;;;;;;;31.51;39.19;94781.63;5115078;28;20443;-85
2022/08/28 08:49:28;;;;;;;11.80;7.50;;;;;;;31.53;38.52;94784.91;5078452;28;20436;-85
2022/08/28 08:52:12;;;;;;;13.93;7.30;;;;;;;31.59;37.52;94778.41;5114610;28;20438;-85
2022/08/28 08:54:41;;;;;;;9.30;6.37;;;;;;;31.68;37.35;94774.13;5067289;28;20455;-85
2022/08/28 08:57:11;;;;;;;11.43;6.67;;;;;;;31.74;39.78;94773.09;5114418;28;20439;-86
2022/08/28 08:59:39;;;;;;;11.13;7.63;;;;;;;31.70;38.58;94775.47;5114463;28;20949;-84
2022/08/28 09:02:13;;;;;;;17.77;8.80;;;;;;;31.80;39.43;94780.16;5114147;28;20458;-85
2022/08/28 09:04:45;;;;;;;12.60;6.90;;;;;;;31.79;37.22;94778.53;5114261;28;20531;-84
2022/08/28 09:07:19;;;;;;;20.40;7.83;;;;;;;31.86;37.97;94779.13;5114109;28;20496;-86
2022/08/28 09:09:51;;;;;;;15.57;6.90;;;;;;;31.92;38.58;94778.06;5114020;28;20439;-85
2022/08/28 09:12:20;;;;;;;13.93;7.53;;;;;;;32.02;37.79;94783.50;5114056;28;21006;-85
2022/08/28 09:14:56;;;;;;;11.43;7.07;;;;;;;32.12;36.92;94785.47;5114528;28;20435;-85
2022/08/28 09:17:30;;;;;;;19.93;8.17;;;;;;;32.26;37.05;94778.44;5114033;28;20450;-85
2022/08/28 09:19:57;;;;;;;17.90;7.40;;;;;;;32.34;37.35;94777.09;5114149;28;20474;-85
2022/08/28 09:22:25;;;;;;;13.53;7.10;;;;;;;32.19;36.12;94771.63;5114283;28;20843;-85
2022/08/28 09:24:52;;;;;;;12.57;7.33;;;;;;;31.98;36.20;94771.56;5079506;28;20436;-85
2022/08/28 09:27:24;;;;;;;10.03;6.47;;;;;;;32.02;37.24;94769.94;5099603;28;20782;-84
2022/08/28 09:29:56;;;;;;;10.43;7.90;;;;;;;31.83;37.45;94770.69;5095344;28;20448;-86
2022/08/28 09:32:25;;;;;;;15.63;7.47;;;;;;;31.77;37.03;94764.41;5103318;28;20534;-91
2022/08/28 09:35:06;;;;;;;15.73;8.57;;;;;;;31.81;36.94;94762.81;5115466;28;20800;-86
2022/08/28 09:37:36;;;;;;;17.60;7.90;;;;;;;31.74;35.69;94762.22;5115192;28;20439;-90
2022/08/28 09:40:18;;;;;;;12.70;6.50;;;;;;;31.72;37.00;94758.97;5114940;28;20439;-88
2022/08/28 09:59:19;;;;;;;13.87;7.90;;;;;;;31.60;38.35;94747.50;5113554;28;20831;-87
2022/08/28 10:02:02;;;;;;;21.87;8.37;;;;;;;31.49;36.96;94738.47;5114842;28;20431;-87
2022/08/28 10:04:54;;;;;;;14.50;7.37;;;;;;;31.59;38.83;94741.25;5115555;28;20431;-86
2022/08/28 10:07:30;;;;;;;15.50;8.70;;;;;;;31.73;38.49;94728.84;5032228;28;20447;-86
2022/08/28 10:10:12;;;;;;;16.10;7.80;;;;;;;31.83;38.24;94735.41;5031806;28;20776;-86
2022/08/28 10:12:47;;;;;;;10.40;8.80;;;;;;;31.86;36.72;94726.72;5031798;28;20453;-87
2022/08/28 10:15:22;;;;;;;13.70;8.27;;;;;;;31.93;36.54;94730.00;5031853;28;20458;-87
2022/08/28 10:18:05;;;;;;;10.77;7.73;;;;;;;31.90;35.88;94725.94;5031564;28;20449;-86
2022/08/28 10:20:46;;;;;;;15.63;7.60;;;;;;;31.79;36.43;94724.25;5031626;28;20435;-86
2022/08/28 10:23:30;;;;;;;9.93;7.83;;;;;;;31.73;35.25;94722.59;5031898;28;20529;-88
2022/08/28 10:26:03;;;;;;;17.30;7.30;;;;;;;31.63;35.39;94725.25;5031484;28;20443;-88
2022/08/28 10:28:45;;;;;;;17.63;8.67;;;;;;;31.64;36.16;94713.31;5031432;28;20431;-87
2022/08/28 10:31:22;;;;;;;15.03;7.77;;;;;;;31.71;36.65;94716.63;5031619;28;20439;-89
2022/08/28 10:34:01;;;;;;;12.17;7.67;;;;;;;31.71;36.84;94720.16;5031429;28;20443;-89
2022/08/28 10:36:31;;;;;;;9.23;6.87;;;;;;;31.62;36.64;94708.16;5031571;28;20435;-88
2022/08/28 10:39:11;;;;;;;12.13;7.23;;;;;;;31.56;35.30;94713.84;5030617;28;20901;-88
2022/08/28 10:41:43;;;;;;;10.37;7.30;;;;;;;31.51;35.46;94719.22;5029882;28;20512;-88
2022/08/28 10:44:16;;;;;;;11.67;8.60;;;;;;;31.51;35.15;94713.78;5065411;28;20529;-87
2022/08/28 10:46:49;;;;;;;7.83;6.77;;;;;;;31.56;35.03;94719.28;5113076;28;20450;-86
2022/08/28 11:25:47;;;;;;;15.80;9.93;;;;;;;31.37;37.09;94698.00;5091035;27;20535;-84
2022/08/28 11:28:18;;;;;;;14.90;9.90;;;;;;;31.42;36.02;94689.91;5091129;28;20470;-85
2022/08/28 11:30:46;;;;;;;14.23;8.73;;;;;;;31.55;36.36;94691.31;5090626;28;20830;-85
2022/08/28 11:33:37;;;;;;;16.80;9.40;;;;;;;31.70;35.64;94688.66;5090712;28;20432;-84
2022/08/28 11:36:09;;;;;;;12.20;7.20;;;;;;;31.78;34.68;94676.47;5090642;28;20807;-85
2022/08/28 11:39:03;;;;;;;13.70;8.03;;;;;;;31.72;35.00;94688.41;5091105;28;20432;-88
2022/08/28 11:41:33;;;;;;;9.63;7.57;;;;;;;31.77;35.12;94672.13;5091275;28;20440;-85
2022/08/28 11:44:25;;;;;;;14.20;8.17;;;;;;;31.91;34.63;94681.41;5093232;28;20472;-86
2022/08/28 11:46:55;;;;;;;13.63;7.27;;;;;;;31.90;33.63;94673.53;5089994;28;20544;-85
2022/08/28 11:49:43;;;;;;;11.87;8.00;;;;;;;31.91;32.99;94672.47;5089301;28;20450;-86
2022/08/28 11:52:32;;;;;;;18.43;7.80;;;;;;;31.98;33.79;94671.09;5089119;28;20813;-86
2022/08/28 11:55:12;;;;;;;8.97;8.00;;;;;;;32.00;32.80;94677.09;5089558;28;20437;-87
2022/08/28 11:57:57;;;;;;;8.70;7.20;;;;;;;31.99;32.74;94675.44;5089178;28;20447;-87
2022/08/28 12:00:36;;;;;;;9.60;8.07;;;;;;;31.87;33.27;94666.75;5090244;28;20444;-91
2022/08/28 12:03:14;;;;;;;12.50;8.40;;;;;;;31.93;33.64;94662.16;5090147;28;20841;-88
2022/08/28 12:05:59;;;;;;;11.77;7.43;;;;;;;31.96;33.38;94662.41;5089512;28;20487;-89
2022/08/28 12:09:02;;;;;;;11.20;7.60;;;;;;;31.93;32.82;94659.44;5089262;28;20447;-87
2022/08/28 12:12:03;;;;;;;8.07;7.27;;;;;;;31.99;32.63;94655.63;5089255;28;20448;-90
2022/08/28 12:14:59;;;;;;;15.17;8.07;;;;;;;31.97;31.37;94660.53;5103929;28;20436;-88
2022/08/28 12:17:29;;;;;;;15.80;7.80;;;;;;;32.00;33.16;94663.50;5047144;28;20442;-92
2022/08/28 12:20:04;;;;;;;16.70;8.53;;;;;;;32.02;34.16;94663.25;5046859;28;20492;-88
2022/08/28 12:22:45;;;;;;;13.47;7.60;;;;;;;32.11;34.38;94658.94;5046886;28;20445;-89
2022/08/28 12:25:32;;;;;;;14.27;8.63;;;;;;;32.17;35.41;94662.47;5046571;28;20493;-88
2022/08/28 12:28:06;;;;;;;12.57;7.87;;;;;;;32.17;34.27;94652.41;5046394;28;20442;-86
2022/08/28 12:30:45;;;;;;;12.30;8.10;;;;;;;32.26;34.86;94660.84;5046539;28;20846;-86
2022/08/28 12:33:17;;;;;;;13.07;8.17;;;;;;;32.24;33.42;94650.22;5046321;28;20492;-86
2022/08/28 12:35:44;;;;;;;15.63;8.00;;;;;;;32.23;33.75;94642.34;5040059;28;20623;-92
2022/08/28 12:38:19;;;;;;;9.60;7.17;;;;;;;32.20;33.68;94643.72;5032994;28;20446;-88